Cowley, Canada
Current Conditions -  °F | °C
As of 6:00 AM on Sunday 23 Nov 2014 (Local Time) from CZPC Reporting Station
Clear Clear  
Wind Chill: 20°   Ceiling: Unl
Heat Index: 28°   Visibility: 9mi
Dew Point: 16°   Wind: 8mph
Humidity: 59%   Direction: 220°SW
Pressure: 29.82"   Gusts: NA
Location:  49.57°N, 114.07°W
Report Text: CZPC 231300Z AUTO 22007KT 9SM CLR M02/M09 A2982 RMK SLP137
Loading
Personal Weather Stations






























Interactive Weather Map New forecast layout! Learn more

10-Day Weather Forecast

Advertisements
Track Severe Weather on mobile